sensor_id;sensor_type;location;lat;lon;timestamp;pressure;altitude;pressure_sealevel;temperature;humidity
67818;BME280;54614;47.576;7.524;2023-02-24T00:01:52;98050.47;;;24.55;36.52
67818;BME280;54614;47.576;7.524;2023-02-24T00:04:26;98045.31;;;24.53;36.85
67818;BME280;54614;47.576;7.524;2023-02-24T00:06:52;98041.81;;;24.53;36.77
67818;BME280;54614;47.576;7.524;2023-02-24T00:09:25;98037.25;;;24.53;36.64
67818;BME280;54614;47.576;7.524;2023-02-24T00:11:59;98029.41;;;24.52;36.62
67818;BME280;54614;47.576;7.524;2023-02-24T00:14:32;98039.78;;;24.48;36.62
67818;BME280;54614;47.576;7.524;2023-02-24T00:16:59;98037.91;;;24.49;36.69
67818;BME280;54614;47.576;7.524;2023-02-24T00:19:28;98045.16;;;24.48;36.79
67818;BME280;54614;47.576;7.524;2023-02-24T00:21:57;98040.59;;;24.49;36.60
67818;BME280;54614;47.576;7.524;2023-02-24T00:24:25;98036.28;;;24.48;36.68
67818;BME280;54614;47.576;7.524;2023-02-24T00:26:58;98037.31;;;24.47;36.73
67818;BME280;54614;47.576;7.524;2023-02-24T00:29:25;98038.16;;;24.47;36.65
67818;BME280;54614;47.576;7.524;2023-02-24T00:31:57;98040.00;;;24.47;36.23
67818;BME280;54614;47.576;7.524;2023-02-24T00:34:33;98038.97;;;24.48;36.31
67818;BME280;54614;47.576;7.524;2023-02-24T00:37:00;98040.84;;;24.47;36.55
67818;BME280;54614;47.576;7.524;2023-02-24T00:39:28;98042.69;;;24.47;36.70
67818;BME280;54614;47.576;7.524;2023-02-24T00:42:02;98040.84;;;24.47;36.73
67818;BME280;54614;47.576;7.524;2023-02-24T00:44:36;98043.53;;;24.47;36.68
67818;BME280;54614;47.576;7.524;2023-02-24T00:47:05;98038.97;;;24.48;36.23
67818;BME280;54614;47.576;7.524;2023-02-24T00:49:34;98041.88;;;24.46;36.80
67818;BME280;54614;47.576;7.524;2023-02-24T00:52:10;98040.84;;;24.47;36.42
67818;BME280;54614;47.576;7.524;2023-02-24T00:54:39;98029.25;;;24.47;36.30
67818;BME280;54614;47.576;7.524;2023-02-24T00:57:05;98036.50;;;24.46;36.63
67818;BME280;54614;47.576;7.524;2023-02-24T00:59:34;98023.88;;;24.47;36.40
67818;BME280;54614;47.576;7.524;2023-02-24T01:02:00;98029.25;;;24.47;36.37
67818;BME280;54614;47.576;7.524;2023-02-24T01:04:28;98035.47;;;24.47;36.58
67818;BME280;54614;47.576;7.524;2023-02-24T01:06:55;98021.19;;;24.47;36.65
67818;BME280;54614;47.576;7.524;2023-02-24T01:09:27;98019.56;;;24.46;36.37
67818;BME280;54614;47.576;7.524;2023-02-24T01:11:53;98024.34;;;24.43;36.50
67818;BME280;54614;47.576;7.524;2023-02-24T01:14:38;98024.09;;;24.45;36.63
67818;BME280;54614;47.576;7.524;2023-02-24T01:17:06;98024.34;;;24.43;36.57
67818;BME280;54614;47.576;7.524;2023-02-24T01:19:34;98025.38;;;24.42;36.56
67818;BME280;54614;47.576;7.524;2023-02-24T01:22:05;98025.38;;;24.42;36.41
67818;BME280;54614;47.576;7.524;2023-02-24T01:24:37;98023.72;;;24.41;36.39
67818;BME280;54614;47.576;7.524;2023-02-24T01:27:04;98021.03;;;24.41;36.19
67818;BME280;54614;47.576;7.524;2023-02-24T01:29:30;98017.53;;;24.41;36.56
67818;BME280;54614;47.576;7.524;2023-02-24T01:31:56;98021.03;;;24.41;36.37
67818;BME280;54614;47.576;7.524;2023-02-24T01:34:25;98006.78;;;24.41;36.43
67818;BME280;54614;47.576;7.524;2023-02-24T01:36:51;98005.38;;;24.38;36.63
67818;BME280;54614;47.576;7.524;2023-02-24T01:39:17;97996.47;;;24.38;36.50
67818;BME280;54614;47.576;7.524;2023-02-24T01:41:46;97997.53;;;24.37;36.29
67818;BME280;54614;47.576;7.524;2023-02-24T01:46:44;97991.31;;;24.36;36.63
67818;BME280;54614;47.576;7.524;2023-02-24T01:49:28;97995.66;;;24.37;36.69
67818;BME280;54614;47.576;7.524;2023-02-24T01:52:12;97999.38;;;24.36;36.76
67818;BME280;54614;47.576;7.524;2023-02-24T01:54:55;98003.94;;;24.36;36.46
67818;BME280;54614;47.576;7.524;2023-02-24T01:57:26;97998.56;;;24.36;36.31
67818;BME280;54614;47.576;7.524;2023-02-24T01:59:57;98002.31;;;24.35;36.35
67818;BME280;54614;47.576;7.524;2023-02-24T02:02:37;98006.84;;;24.34;36.75
67818;BME280;54614;47.576;7.524;2023-02-24T02:05:08;98012.22;;;24.34;36.30
67818;BME280;54614;47.576;7.524;2023-02-24T02:07:36;98005.22;;;24.33;36.42
67818;BME280;54614;47.576;7.524;2023-02-24T02:10:06;98001.72;;;24.33;36.73
67818;BME280;54614;47.576;7.524;2023-02-24T02:12:36;97996.34;;;24.33;36.29
67818;BME280;54614;47.576;7.524;2023-02-24T02:15:12;97998.19;;;24.32;36.38
67818;BME280;54614;47.576;7.524;2023-02-24T02:24:18;97997.38;;;24.32;36.53
67818;BME280;54614;47.576;7.524;2023-02-24T02:30:09;97996.56;;;24.31;36.52
67818;BME280;54614;47.576;7.524;2023-02-24T02:35:45;97990.81;;;24.28;36.57
67818;BME280;54614;47.576;7.524;2023-02-24T02:38:43;97995.97;;;24.29;36.24
67818;BME280;54614;47.576;7.524;2023-02-24T02:44:23;97986.47;;;24.27;36.72
67818;BME280;54614;47.576;7.524;2023-02-24T02:49:44;97979.22;;;24.27;36.62
67818;BME280;54614;47.576;7.524;2023-02-24T02:52:20;97985.84;;;24.25;36.49
67818;BME280;54614;47.576;7.524;2023-02-24T02:54:56;97985.03;;;24.24;36.33
67818;BME280;54614;47.576;7.524;2023-02-24T02:57:30;97978.59;;;24.25;36.26
67818;BME280;54614;47.576;7.524;2023-02-24T03:00:28;97982.13;;;24.26;36.71
67818;BME280;54614;47.576;7.524;2023-02-24T03:03:13;97974.28;;;24.24;36.56
67818;BME280;54614;47.576;7.524;2023-02-24T03:05:55;97974.06;;;24.26;36.62
67818;BME280;54614;47.576;7.524;2023-02-24T03:08:29;97970.75;;;24.24;36.68
67818;BME280;54614;47.576;7.524;2023-02-24T03:11:02;97977.78;;;24.25;36.67
67818;BME280;54614;47.576;7.524;2023-02-24T03:13:38;97965.41;;;24.24;36.61
67818;BME280;54614;47.576;7.524;2023-02-24T03:16:09;97966.44;;;24.23;36.19
67818;BME280;54614;47.576;7.524;2023-02-24T03:18:44;97962.94;;;24.22;36.39
67818;BME280;54614;47.576;7.524;2023-02-24T03:23:53;97959.19;;;24.23;36.55
67818;BME280;54614;47.576;7.524;2023-02-24T03:26:51;97959.19;;;24.23;36.52
67818;BME280;54614;47.576;7.524;2023-02-24T03:29:29;97959.66;;;24.20;36.48
67818;BME280;54614;47.576;7.524;2023-02-24T03:32:11;97950.75;;;24.20;36.29
67818;BME280;54614;47.576;7.524;2023-02-24T03:34:59;97962.09;;;24.22;36.18
67818;BME280;54614;47.576;7.524;2023-02-24T03:37:32;97951.59;;;24.20;36.57
67818;BME280;54614;47.576;7.524;2023-02-24T03:40:03;97957.78;;;24.21;36.14
67818;BME280;54614;47.576;7.524;2023-02-24T03:42:53;97948.06;;;24.20;36.35
67818;BME280;54614;47.576;7.524;2023-02-24T03:45:23;97948.06;;;24.20;36.50
67818;BME280;54614;47.576;7.524;2023-02-24T03:47:50;97950.75;;;24.20;36.29
67818;BME280;54614;47.576;7.524;2023-02-24T03:50:20;97952.84;;;24.18;36.62
67818;BME280;54614;47.576;7.524;2023-02-24T04:04:36;97946.66;;;24.17;36.57
67818;BME280;54614;47.576;7.524;2023-02-24T04:10:25;97948.75;;;24.15;36.49
67818;BME280;54614;47.576;7.524;2023-02-24T04:13:06;97945.25;;;24.15;36.31
67818;BME280;54614;47.576;7.524;2023-02-24T04:15:40;97946.06;;;24.15;36.50
67818;BME280;54614;47.576;7.524;2023-02-24T04:18:34;97936.13;;;24.16;36.41
67818;BME280;54614;47.576;7.524;2023-02-24T04:21:04;97940.91;;;24.14;36.30
67818;BME280;54614;47.576;7.524;2023-02-24T04:23:39;97940.09;;;24.13;36.44
67818;BME280;54614;47.576;7.524;2023-02-24T04:26:10;97943.59;;;24.14;36.54
67818;BME280;54614;47.576;7.524;2023-02-24T04:28:38;97940.91;;;24.14;36.31
67818;BME280;54614;47.576;7.524;2023-02-24T04:31:10;97940.53;;;24.10;36.33
67818;BME280;54614;47.576;7.524;2023-02-24T04:33:42;97937.84;;;24.10;36.48
67818;BME280;54614;47.576;7.524;2023-02-24T04:36:12;97939.03;;;24.14;36.07
67818;BME280;54614;47.576;7.524;2023-02-24T04:38:38;97941.72;;;24.14;36.33
67818;BME280;54614;47.576;7.524;2023-02-24T04:41:04;97932.03;;;24.13;36.23
67818;BME280;54614;47.576;7.524;2023-02-24T04:43:30;97939.88;;;24.15;36.38
67818;BME280;54614;47.576;7.524;2023-02-24T04:45:56;97937.19;;;24.15;36.42
67818;BME280;54614;47.576;7.524;2023-02-24T04:48:22;97929.34;;;24.13;36.08
67818;BME280;54614;47.576;7.524;2023-02-24T04:50:48;97926.06;;;24.11;36.21
67818;BME280;54614;47.576;7.524;2023-02-24T04:53:20;97927.47;;;24.14;36.20
67818;BME280;54614;47.576;7.524;2023-02-24T04:55:53;97917.78;;;24.13;35.97
67818;BME280;54614;47.576;7.524;2023-02-24T04:58:24;97922.31;;;24.12;36.14
67818;BME280;54614;47.576;7.524;2023-02-24T05:00:53;97909.94;;;24.11;36.24
67818;BME280;54614;47.576;7.524;2023-02-24T05:03:22;97912.63;;;24.11;36.39
67818;BME280;54614;47.576;7.524;2023-02-24T05:05:57;97904.56;;;24.11;36.24
67818;BME280;54614;47.576;7.524;2023-02-24T05:08:29;97911.81;;;24.10;36.04
67818;BME280;54614;47.576;7.524;2023-02-24T05:10:55;97907.84;;;24.13;35.64
67818;BME280;54614;47.576;7.524;2023-02-24T05:13:29;97905.59;;;24.10;36.31
67818;BME280;54614;47.576;7.524;2023-02-24T05:15:59;97902.94;;;24.10;36.22
67818;BME280;54614;47.576;7.524;2023-02-24T05:18:27;97896.13;;;24.07;35.96
67818;BME280;54614;47.576;7.524;2023-02-24T05:20:55;97894.50;;;24.06;36.22
67818;BME280;54614;47.576;7.524;2023-02-24T05:23:44;97890.38;;;24.04;36.16
67818;BME280;54614;47.576;7.524;2023-02-24T05:26:15;97887.25;;;24.07;36.36
67818;BME280;54614;47.576;7.524;2023-02-24T05:28:44;97875.47;;;24.08;36.24
67818;BME280;54614;47.576;7.524;2023-02-24T05:31:18;97865.53;;;24.08;36.37
67818;BME280;54614;47.576;7.524;2023-02-24T05:33:48;97877.69;;;24.11;36.38
67818;BME280;54614;47.576;7.524;2023-02-24T05:36:17;97875.59;;;24.13;36.15
67818;BME280;54614;47.576;7.524;2023-02-24T05:38:50;97868.13;;;24.15;35.90
67818;BME280;54614;47.576;7.524;2023-02-24T05:41:21;97869.78;;;24.16;35.97
67818;BME280;54614;47.576;7.524;2023-02-24T05:43:51;97856.56;;;24.15;35.98
67818;BME280;54614;47.576;7.524;2023-02-24T05:46:29;97852.94;;;24.09;36.34
67818;BME280;54614;47.576;7.524;2023-02-24T05:49:02;97851.50;;;24.06;36.40
67818;BME280;54614;47.576;7.524;2023-02-24T05:51:31;97848.81;;;24.06;36.50
67818;BME280;54614;47.576;7.524;2023-02-24T05:54:06;97855.25;;;24.05;36.29
67818;BME280;54614;47.576;7.524;2023-02-24T05:56:36;97848.00;;;24.06;36.36
67818;BME280;54614;47.576;7.524;2023-02-24T05:59:06;97853.38;;;24.06;36.66
67818;BME280;54614;47.576;7.524;2023-02-24T06:01:40;97860.38;;;24.07;36.34
67818;BME280;54614;47.576;7.524;2023-02-24T06:04:08;97869.50;;;24.06;36.56
67818;BME280;54614;47.576;7.524;2023-02-24T06:06:38;97871.13;;;24.07;36.55
67818;BME280;54614;47.576;7.524;2023-02-24T06:09:12;97865.75;;;24.07;36.51
67818;BME280;54614;47.576;7.524;2023-02-24T06:11:42;97863.06;;;24.07;36.32
67818;BME280;54614;47.576;7.524;2023-02-24T06:14:11;97863.31;;;24.05;36.36
67818;BME280;54614;47.576;7.524;2023-02-24T06:16:40;97857.09;;;24.05;36.21
67818;BME280;54614;47.576;7.524;2023-02-24T06:19:09;97857.09;;;24.05;36.12
67818;BME280;54614;47.576;7.524;2023-02-24T06:21:39;97849.88;;;24.05;36.31
67818;BME280;54614;47.576;7.524;2023-02-24T06:24:13;97851.13;;;24.03;36.36
67818;BME280;54614;47.576;7.524;2023-02-24T06:26:44;97845.31;;;24.06;36.32
67818;BME280;54614;47.576;7.524;2023-02-24T06:29:13;97843.91;;;24.03;35.75
67818;BME280;54614;47.576;7.524;2023-02-24T06:31:40;97846.59;;;24.03;35.78
67818;BME280;54614;47.576;7.524;2023-02-24T06:34:08;97844.94;;;24.02;36.19
67818;BME280;54614;47.576;7.524;2023-02-24T06:36:38;97839.13;;;24.05;36.69
67818;BME280;54614;47.576;7.524;2023-02-24T06:39:05;97836.66;;;24.04;36.96
67818;BME280;54614;47.576;7.524;2023-02-24T06:41:34;97839.72;;;24.07;36.83
67818;BME280;54614;47.576;7.524;2023-02-24T06:44:02;97839.13;;;24.05;36.56
67818;BME280;54614;47.576;7.524;2023-02-24T06:46:28;97836.66;;;24.04;37.16
67818;BME280;54614;47.576;7.524;2023-02-24T06:48:54;97826.00;;;23.97;37.30
67818;BME280;54614;47.576;7.524;2023-02-24T06:51:23;97828.00;;;24.02;37.19
67818;BME280;54614;47.576;7.524;2023-02-24T06:53:50;97840.75;;;24.06;36.76
67818;BME280;54614;47.576;7.524;2023-02-24T06:56:17;97847.78;;;24.07;36.78
67818;BME280;54614;47.576;7.524;2023-02-24T06:58:50;97855.59;;;24.09;36.40
67818;BME280;54614;47.576;7.524;2023-02-24T07:01:23;97848.00;;;24.06;36.61
67818;BME280;54614;47.576;7.524;2023-02-24T07:03:55;97846.38;;;24.05;41.75
67818;BME280;54614;47.576;7.524;2023-02-24T07:06:31;97854.19;;;24.06;41.22
67818;BME280;54614;47.576;7.524;2023-02-24T07:09:01;97840.69;;;24.13;40.24
67818;BME280;54614;47.576;7.524;2023-02-24T07:11:30;97838.94;;;24.19;40.23
67818;BME280;54614;47.576;7.524;2023-02-24T07:13:57;97830.59;;;24.27;39.94
67818;BME280;54614;47.576;7.524;2023-02-24T07:16:24;97827.28;;;24.43;40.08
67818;BME280;54614;47.576;7.524;2023-02-24T07:18:58;97829.06;;;24.49;39.77
67818;BME280;54614;47.576;7.524;2023-02-24T07:21:26;97827.53;;;24.53;38.54
67818;BME280;54614;47.576;7.524;2023-02-24T07:23:56;97822.25;;;24.47;38.17
67818;BME280;54614;47.576;7.524;2023-02-24T07:26:24;97831.16;;;24.47;37.32
67818;BME280;54614;47.576;7.524;2023-02-24T07:28:53;97831.16;;;24.47;37.26
67818;BME280;54614;47.576;7.524;2023-02-24T07:31:23;97833.25;;;24.45;37.11
67818;BME280;54614;47.576;7.524;2023-02-24T07:33:54;97825.41;;;24.43;37.08
67818;BME280;54614;47.576;7.524;2023-02-24T07:36:28;97819.44;;;24.41;37.15
67818;BME280;54614;47.576;7.524;2023-02-24T07:39:05;97816.97;;;24.40;36.49
67818;BME280;54614;47.576;7.524;2023-02-24T07:41:33;97818.25;;;24.37;36.99
67818;BME280;54614;47.576;7.524;2023-02-24T07:43:59;97825.72;;;24.35;36.50
67818;BME280;54614;47.576;7.524;2023-02-24T07:46:28;97821.19;;;24.36;36.39
67818;BME280;54614;47.576;7.524;2023-02-24T07:48:56;97811.69;;;24.33;36.63
67818;BME280;54614;47.576;7.524;2023-02-24T07:51:26;97810.88;;;24.33;36.79
67818;BME280;54614;47.576;7.524;2023-02-24T07:53:56;97804.69;;;24.32;36.68
67818;BME280;54614;47.576;7.524;2023-02-24T07:56:26;97797.44;;;24.33;36.31
67818;BME280;54614;47.576;7.524;2023-02-24T08:01:34;97777.22;;;24.30;36.28
67818;BME280;54614;47.576;7.524;2023-02-24T08:04:12;97796.84;;;24.31;36.34
67818;BME280;54614;47.576;7.524;2023-02-24T08:06:42;97791.47;;;24.31;36.12
67818;BME280;54614;47.576;7.524;2023-02-24T08:09:16;97799.53;;;24.31;36.14
67818;BME280;54614;47.576;7.524;2023-02-24T08:11:54;97795.22;;;24.30;36.33
67818;BME280;54614;47.576;7.524;2023-02-24T08:14:27;97789.25;;;24.28;36.29
67818;BME280;54614;47.576;7.524;2023-02-24T08:17:01;97796.50;;;24.27;35.97
67818;BME280;54614;47.576;7.524;2023-02-24T08:19:32;97784.09;;;24.26;35.98
67818;BME280;54614;47.576;7.524;2023-02-24T08:22:06;97784.09;;;24.26;36.16
67818;BME280;54614;47.576;7.524;2023-02-24T08:24:58;97769.81;;;24.26;36.43
67818;BME280;54614;47.576;7.524;2023-02-24T08:27:28;97765.50;;;24.25;36.34
67818;BME280;54614;47.576;7.524;2023-02-24T08:29:58;97758.25;;;24.25;36.33
67818;BME280;54614;47.576;7.524;2023-02-24T08:32:41;97757.44;;;24.25;36.24
67818;BME280;54614;47.576;7.524;2023-02-24T08:35:20;97752.06;;;24.25;36.02
67818;BME280;54614;47.576;7.524;2023-02-24T08:37:53;97743.41;;;24.23;36.24
67818;BME280;54614;47.576;7.524;2023-02-24T08:40:27;97750.63;;;24.22;36.03
67818;BME280;54614;47.576;7.524;2023-02-24T08:43:01;97748.78;;;24.23;35.98
67818;BME280;54614;47.576;7.524;2023-02-24T08:48:28;97757.66;;;24.23;36.19
67818;BME280;54614;47.576;7.524;2023-02-24T08:53:30;97752.50;;;24.22;36.17
67818;BME280;54614;47.576;7.524;2023-02-24T08:56:01;97751.69;;;24.21;36.21
67818;BME280;54614;47.576;7.524;2023-02-24T08:58:44;97754.38;;;24.21;36.37
67818;BME280;54614;47.576;7.524;2023-02-24T09:01:20;97754.38;;;24.21;36.03
67818;BME280;54614;47.576;7.524;2023-02-24T09:03:57;97745.50;;;24.21;35.84
67818;BME280;54614;47.576;7.524;2023-02-24T09:06:38;97748.19;;;24.21;36.32
67818;BME280;54614;47.576;7.524;2023-02-24T09:09:05;97742.22;;;24.19;35.90
67818;BME280;54614;47.576;7.524;2023-02-24T09:11:57;97736.84;;;24.19;36.16
67818;BME280;54614;47.576;7.524;2023-02-24T09:14:27;97743.28;;;24.18;35.93
67818;BME280;54614;47.576;7.524;2023-02-24T09:16:57;97723.63;;;24.17;35.81
67818;BME280;54614;47.576;7.524;2023-02-24T09:19:50;97724.22;;;24.19;36.34
67818;BME280;54614;47.576;7.524;2023-02-24T09:22:28;97725.50;;;24.17;35.94
67818;BME280;54614;47.576;7.524;2023-02-24T09:25:32;97721.53;;;24.19;35.89
67818;BME280;54614;47.576;7.524;2023-02-24T09:28:18;97714.31;;;24.20;36.16
67818;BME280;54614;47.576;7.524;2023-02-24T09:30:55;97716.75;;;24.21;35.92
67818;BME280;54614;47.576;7.524;2023-02-24T09:36:05;97716.53;;;24.23;36.30
67818;BME280;54614;47.576;7.524;2023-02-24T09:38:36;97712.56;;;24.25;36.27
67818;BME280;54614;47.576;7.524;2023-02-24T09:41:50;97720.31;;;24.33;35.94
67818;BME280;54614;47.576;7.524;2023-02-24T09:44:41;97714.13;;;24.33;36.01
67818;BME280;54614;47.576;7.524;2023-02-24T09:52:58;97699.88;;;24.32;36.04
67818;BME280;54614;47.576;7.524;2023-02-24T09:55:56;97709.81;;;24.32;35.89
67818;BME280;54614;47.576;7.524;2023-02-24T09:58:57;97706.28;;;24.31;35.97
67818;BME280;54614;47.576;7.524;2023-02-24T10:02:40;97698.22;;;24.31;36.25
67818;BME280;54614;47.576;7.524;2023-02-24T10:05:00;97690.75;;;24.33;36.42
67818;BME280;54614;47.576;7.524;2023-02-24T10:07:40;97688.44;;;24.37;36.18
67818;BME280;54614;47.576;7.524;2023-02-24T10:10:27;97690.88;;;24.38;36.02
67818;BME280;54614;47.576;7.524;2023-02-24T10:13:33;97694.16;;;24.40;36.08
67818;BME280;54614;47.576;7.524;2023-02-24T10:16:09;97692.06;;;24.42;35.97
67818;BME280;54614;47.576;7.524;2023-02-24T10:18:56;97687.50;;;24.43;35.99
67818;BME280;54614;47.576;7.524;2023-02-24T10:22:09;97685.41;;;24.45;35.60
67818;BME280;54614;47.576;7.524;2023-02-24T10:25:01;97678.63;;;24.42;35.87
67818;BME280;54614;47.576;7.524;2023-02-24T10:28:02;97679.44;;;24.43;35.97
67818;BME280;54614;47.576;7.524;2023-02-24T10:33:27;97671.84;;;24.40;35.69
67818;BME280;54614;47.576;7.524;2023-02-24T10:36:12;97675.56;;;24.39;35.65
67818;BME280;54614;47.576;7.524;2023-02-24T10:38:42;97678.25;;;24.39;36.05
67818;BME280;54614;47.576;7.524;2023-02-24T10:41:16;97675.13;;;24.42;36.02
67818;BME280;54614;47.576;7.524;2023-02-24T10:43:54;97669.75;;;24.42;35.80
67818;BME280;54614;47.576;7.524;2023-02-24T10:46:31;97664.94;;;24.44;35.97
67818;BME280;54614;47.576;7.524;2023-02-24T10:49:03;97665.31;;;24.48;35.84
67818;BME280;54614;47.576;7.524;2023-02-24T10:51:46;97668.00;;;24.48;35.54
67818;BME280;54614;47.576;7.524;2023-02-24T10:54:19;97661.56;;;24.49;35.68
67818;BME280;54614;47.576;7.524;2023-02-24T10:57:06;97662.38;;;24.49;36.09
67818;BME280;54614;47.576;7.524;2023-02-24T10:59:58;97663.66;;;24.47;35.79
67818;BME280;54614;47.576;7.524;2023-02-24T11:02:36;97654.78;;;24.46;35.92
67818;BME280;54614;47.576;7.524;2023-02-24T11:05:25;97660.50;;;24.50;36.00
67818;BME280;54614;47.576;7.524;2023-02-24T11:08:17;97648.47;;;24.52;36.12
67818;BME280;54614;47.576;7.524;2023-02-24T11:11:14;97646.84;;;24.51;36.09
67818;BME280;54614;47.576;7.524;2023-02-24T11:13:51;97637.72;;;24.52;35.75
67818;BME280;54614;47.576;7.524;2023-02-24T11:19:42;97635.72;;;24.59;35.90
67818;BME280;54614;47.576;7.524;2023-02-24T11:22:40;97639.34;;;24.65;35.89
67818;BME280;54614;47.576;7.524;2023-02-24T11:25:38;97630.47;;;24.64;35.60
67818;BME280;54614;47.576;7.524;2023-02-24T11:34:26;97608.97;;;24.64;36.01
67818;BME280;54614;47.576;7.524;2023-02-24T11:37:35;97608.47;;;24.67;35.85
67818;BME280;54614;47.576;7.524;2023-02-24T11:40:21;97595.03;;;24.67;36.01
67818;BME280;54614;47.576;7.524;2023-02-24T11:43:04;97590.81;;;24.71;35.82
67818;BME280;54614;47.576;7.524;2023-02-24T11:45:40;97582.53;;;24.73;35.69
67818;BME280;54614;47.576;7.524;2023-02-24T11:48:26;97575.38;;;24.79;35.91
67818;BME280;54614;47.576;7.524;2023-02-24T11:56:09;97558.06;;;24.86;35.53
67818;BME280;54614;47.576;7.524;2023-02-24T11:58:49;97549.75;;;24.88;35.45
67818;BME280;54614;47.576;7.524;2023-02-24T12:02:12;97541.44;;;24.89;35.53
67818;BME280;54614;47.576;7.524;2023-02-24T12:04:47;97536.63;;;24.91;35.81
67818;BME280;54614;47.576;7.524;2023-02-24T12:07:41;97528.34;;;24.93;35.70
67818;BME280;54614;47.576;7.524;2023-02-24T12:15:38;97525.78;;;24.98;35.41
67818;BME280;54614;47.576;7.524;2023-02-24T12:18:34;97524.47;;;25.00;35.65
67818;BME280;54614;47.576;7.524;2023-02-24T12:23:47;97517.56;;;24.93;35.48
67818;BME280;54614;47.576;7.524;2023-02-24T12:47:16;97474.28;;;24.94;35.72
67818;BME280;54614;47.576;7.524;2023-02-24T12:53:07;97470.09;;;24.98;35.95
67818;BME280;54614;47.576;7.524;2023-02-24T12:56:23;97473.38;;;25.00;35.98
67818;BME280;54614;47.576;7.524;2023-02-24T12:58:56;97465.06;;;25.02;35.74
67818;BME280;54614;47.576;7.524;2023-02-24T13:01:38;97462.13;;;25.03;35.63
67818;BME280;54614;47.576;7.524;2023-02-24T13:04:36;97454.38;;;25.07;35.55
67818;BME280;54614;47.576;7.524;2023-02-24T13:10:16;97444.19;;;25.09;35.73
67818;BME280;54614;47.576;7.524;2023-02-24T13:15:53;97432.38;;;25.10;35.42
67818;BME280;54614;47.576;7.524;2023-02-24T13:18:28;97427.00;;;25.10;35.51
67818;BME280;54614;47.576;7.524;2023-02-24T13:21:20;97416.22;;;25.10;35.63
67818;BME280;54614;47.576;7.524;2023-02-24T13:24:01;97417.53;;;25.08;35.59
67818;BME280;54614;47.576;7.524;2023-02-24T13:26:31;97409.22;;;25.09;35.73
67818;BME280;54614;47.576;7.524;2023-02-24T13:29:08;97406.28;;;25.11;35.50
67818;BME280;54614;47.576;7.524;2023-02-24T13:31:49;97396.56;;;25.10;35.76
67818;BME280;54614;47.576;7.524;2023-02-24T13:34:32;97397.41;;;25.10;35.59
67818;BME280;54614;47.576;7.524;2023-02-24T13:37:08;97395.75;;;25.09;35.54
67818;BME280;54614;47.576;7.524;2023-02-24T13:39:38;97396.34;;;25.11;35.59
67818;BME280;54614;47.576;7.524;2023-02-24T13:42:26;97393.66;;;25.11;35.48
67818;BME280;54614;47.576;7.524;2023-02-24T13:53:54;97376.69;;;25.11;35.94
67818;BME280;54614;47.576;7.524;2023-02-24T14:02:27;97365.84;;;25.05;35.72
67818;BME280;54614;47.576;7.524;2023-02-24T14:04:58;97359.88;;;25.03;35.58
67818;BME280;54614;47.576;7.524;2023-02-24T14:07:34;97357.19;;;25.03;35.66
67818;BME280;54614;47.576;7.524;2023-02-24T14:10:14;97351.25;;;25.01;35.84
67818;BME280;54614;47.576;7.524;2023-02-24T14:12:44;97347.50;;;25.02;35.79
67818;BME280;54614;47.576;7.524;2023-02-24T14:15:25;97348.56;;;25.01;35.87
67818;BME280;54614;47.576;7.524;2023-02-24T14:17:59;97335.69;;;25.03;35.62
67818;BME280;54614;47.576;7.524;2023-02-24T14:20:30;97329.47;;;25.03;36.04
67818;BME280;54614;47.576;7.524;2023-02-24T14:22:58;97336.72;;;25.02;36.04
67818;BME280;54614;47.576;7.524;2023-02-24T14:25:29;97331.34;;;25.02;35.61
67818;BME280;54614;47.576;7.524;2023-02-24T14:27:59;97332.97;;;25.03;35.70
67818;BME280;54614;47.576;7.524;2023-02-24T14:30:39;97320.03;;;25.00;35.93
67818;BME280;54614;47.576;7.524;2023-02-24T14:33:21;97332.66;;;25.00;35.77
67818;BME280;54614;47.576;7.524;2023-02-24T14:35:48;97325.41;;;25.00;35.87
67818;BME280;54614;47.576;7.524;2023-02-24T14:38:39;97328.09;;;25.00;35.97
67818;BME280;54614;47.576;7.524;2023-02-24T14:41:27;97321.91;;;25.00;35.71
67818;BME280;54614;47.576;7.524;2023-02-24T14:43:53;97322.16;;;24.98;35.93
67818;BME280;54614;47.576;7.524;2023-02-24T14:46:21;97324.84;;;24.98;35.65
67818;BME280;54614;47.576;7.524;2023-02-24T14:48:54;97324.84;;;24.98;35.65
67818;BME280;54614;47.576;7.524;2023-02-24T14:51:33;97318.84;;;24.96;35.87
67818;BME280;54614;47.576;7.524;2023-02-24T14:54:06;97327.97;;;24.95;35.74
67818;BME280;54614;47.576;7.524;2023-02-24T14:56:36;97320.72;;;24.96;35.91
67818;BME280;54614;47.576;7.524;2023-02-24T14:59:14;97320.97;;;24.94;35.98
67818;BME280;54614;47.576;7.524;2023-02-24T15:01:48;97323.66;;;24.94;35.73
67818;BME280;54614;47.576;7.524;2023-02-24T15:06:48;97322.84;;;24.94;35.97
67818;BME280;54614;47.576;7.524;2023-02-24T15:09:26;97326.59;;;24.93;35.57
67818;BME280;54614;47.576;7.524;2023-02-24T15:11:54;97327.41;;;24.93;36.11
67818;BME280;54614;47.576;7.524;2023-02-24T15:14:28;97316.09;;;24.91;35.81
67818;BME280;54614;47.576;7.524;2023-02-24T15:16:59;97318.78;;;24.91;35.99
67818;BME280;54614;47.576;7.524;2023-02-24T15:19:34;97322.53;;;24.90;35.76
67818;BME280;54614;47.576;7.524;2023-02-24T15:22:26;97328.06;;;24.84;36.46
67818;BME280;54614;47.576;7.524;2023-02-24T15:27:57;97327.56;;;24.70;37.13
67818;BME280;54614;47.576;7.524;2023-02-24T15:30:39;97313.78;;;24.66;37.13
67818;BME280;54614;47.576;7.524;2023-02-24T15:33:24;97311.56;;;24.63;37.41
67818;BME280;54614;47.576;7.524;2023-02-24T15:35:56;97306.53;;;24.67;36.93
67818;BME280;54614;47.576;7.524;2023-02-24T15:38:39;97309.47;;;24.65;36.96
67818;BME280;54614;47.576;7.524;2023-02-24T15:41:07;97303.28;;;24.65;37.17
67818;BME280;54614;47.576;7.524;2023-02-24T15:43:51;97301.16;;;24.67;37.35
67818;BME280;54614;47.576;7.524;2023-02-24T15:46:29;97299.75;;;24.64;37.23
67818;BME280;54614;47.576;7.524;2023-02-24T15:48:55;97301.25;;;24.72;nan
67818;BME280;54614;47.576;7.524;2023-02-24T15:51:38;97305.41;;;24.80;36.53
67818;BME280;54614;47.576;7.524;2023-02-24T15:54:38;97294.97;;;24.83;36.51
67818;BME280;54614;47.576;7.524;2023-02-24T15:57:14;97296.84;;;24.83;36.43